Time;durP1;ratioP1;P1;durP2;ratioP2;P2;SDS_P1;SDS_P2;PMS_P1;PMS_P2;Temp;Humidity;BMP_temperature;BMP_pressure;BME280_temperature;BME280_humidity;BME280_pressure;Samples;Min_cycle;Max_cycle;Signal;HPM_P1;HPM_P2
2022/04/27 00:00:16;;;;;;;201.27;81.77;;;;;;;;;;5136590;27;20532;-71
2022/04/27 00:02:43;;;;;;;197.20;85.67;;;;;;;;;;5136849;27;20449;-71
2022/04/27 00:05:12;;;;;;;195.83;84.77;;;;;;;;;;5136535;27;20532;-71
2022/04/27 00:07:40;;;;;;;208.00;88.07;;;;;;;;;;5136676;27;20461;-71
2022/04/27 00:10:08;;;;;;;205.90;86.67;;;;;;;;;;5136726;27;20493;-71
2022/04/27 00:12:37;;;;;;;217.33;88.57;;;;;;;;;;5136280;27;20755;-71
2022/04/27 00:15:07;;;;;;;222.83;92.13;;;;;;;;;;5136781;27;20450;-71
2022/04/27 00:17:35;;;;;;;184.27;85.57;;;;;;;;;;5136682;27;20502;-71
2022/04/27 00:20:03;;;;;;;187.20;87.97;;;;;;;;;;5135810;27;20454;-71
2022/04/27 00:22:31;;;;;;;176.57;83.37;;;;;;;;;;5136158;27;20858;-70
2022/04/27 00:25:01;;;;;;;182.33;83.13;;;;;;;;;;5116157;27;20490;-71
2022/04/27 00:27:29;;;;;;;180.27;87.27;;;;;;;;;;5116308;27;20493;-71
2022/04/27 00:29:58;;;;;;;175.47;82.90;;;;;;;;;;5115720;27;20451;-70
2022/04/27 00:32:27;;;;;;;169.67;90.27;;;;;;;;;;5116118;27;20803;-70
2022/04/27 00:34:58;;;;;;;169.37;88.00;;;;;;;;;;5116453;27;20827;-71
2022/04/27 00:37:26;;;;;;;192.97;89.23;;;;;;;;;;5120414;27;20454;-71
2022/04/27 00:39:53;;;;;;;196.87;91.20;;;;;;;;;;5119663;27;20861;-72
2022/04/27 00:42:24;;;;;;;193.53;92.03;;;;;;;;;;5120116;27;20807;-71
2022/04/27 00:44:52;;;;;;;171.97;85.03;;;;;;;;;;5119838;27;20490;-71
2022/04/27 00:47:23;;;;;;;172.97;92.23;;;;;;;;;;5119413;27;20459;-70
2022/04/27 00:49:57;;;;;;;214.23;92.07;;;;;;;;;;5122796;27;20536;-71
2022/04/27 00:52:26;;;;;;;192.03;85.00;;;;;;;;;;5140767;27;20458;-71
2022/04/27 00:54:57;;;;;;;183.43;84.90;;;;;;;;;;5139815;27;20779;-70
2022/04/27 00:57:28;;;;;;;195.80;84.70;;;;;;;;;;5140359;27;20776;-70
2022/04/27 00:59:56;;;;;;;205.40;95.60;;;;;;;;;;5140653;27;20532;-71
2022/04/27 01:02:30;;;;;;;209.97;92.23;;;;;;;;;;5140563;27;20943;-70
2022/04/27 01:05:00;;;;;;;215.23;95.67;;;;;;;;;;5140583;27;20512;-71
2022/04/27 01:07:33;;;;;;;184.70;86.87;;;;;;;;;;5140389;27;20796;-71
2022/04/27 01:10:04;;;;;;;206.57;91.87;;;;;;;;;;5140078;27;20472;-70
2022/04/27 01:12:32;;;;;;;195.00;85.27;;;;;;;;;;5139450;27;20545;-70
2022/04/27 01:15:00;;;;;;;191.33;84.67;;;;;;;;;;5140160;27;20473;-71
2022/04/27 01:17:28;;;;;;;185.40;81.33;;;;;;;;;;5139316;27;20453;-71
2022/04/27 01:19:58;;;;;;;195.20;82.33;;;;;;;;;;5139806;27;20467;-71
2022/04/27 01:22:29;;;;;;;214.23;92.10;;;;;;;;;;5139746;27;21021;-72
2022/04/27 01:24:57;;;;;;;189.30;85.00;;;;;;;;;;5139498;27;20490;-71
2022/04/27 01:27:25;;;;;;;197.10;81.70;;;;;;;;;;5139849;27;20460;-71
2022/04/27 01:29:53;;;;;;;199.57;81.57;;;;;;;;;;5139659;27;20461;-70
2022/04/27 01:32:21;;;;;;;209.73;81.10;;;;;;;;;;5139648;27;20458;-71
2022/04/27 01:34:49;;;;;;;216.07;86.00;;;;;;;;;;5139579;27;20858;-71
2022/04/27 01:40:03;;;;;;;200.97;83.97;;;;;;;;;;5139360;27;20460;-71
2022/04/27 01:42:31;;;;;;;205.23;86.90;;;;;;;;;;5139344;27;20453;-71
2022/04/27 01:44:59;;;;;;;205.67;85.70;;;;;;;;;;5137766;27;20484;-70
2022/04/27 01:47:29;;;;;;;221.73;89.70;;;;;;;;;;5138308;27;20453;-71
2022/04/27 01:49:56;;;;;;;224.80;92.13;;;;;;;;;;5138796;27;20940;-70
2022/04/27 01:55:11;;;;;;;199.37;86.60;;;;;;;;;;5138852;27;20433;-70
2022/04/27 01:57:39;;;;;;;190.20;80.07;;;;;;;;;;5138490;27;20446;-70
2022/04/27 02:00:07;;;;;;;234.03;89.77;;;;;;;;;;5118149;27;20447;-71
2022/04/27 02:02:35;;;;;;;200.50;82.57;;;;;;;;;;5118399;27;21087;-70
2022/04/27 02:05:04;;;;;;;203.40;83.57;;;;;;;;;;5117999;27;20854;-70
2022/04/27 02:07:32;;;;;;;210.80;86.87;;;;;;;;;;5132548;27;21048;-70
2022/04/27 02:10:02;;;;;;;211.87;89.20;;;;;;;;;;5138973;27;20929;-71
2022/04/27 02:12:32;;;;;;;210.33;88.50;;;;;;;;;;5138670;27;20738;-70
2022/04/27 02:15:00;;;;;;;218.13;88.57;;;;;;;;;;5138433;27;20889;-70
2022/04/27 02:17:27;;;;;;;205.13;82.10;;;;;;;;;;5138900;27;20519;-71
2022/04/27 02:19:55;;;;;;;196.03;85.50;;;;;;;;;;5138112;27;20466;-71
2022/04/27 02:22:23;;;;;;;236.20;88.33;;;;;;;;;;5138416;27;20821;-70
2022/04/27 02:24:51;;;;;;;228.73;88.70;;;;;;;;;;5138989;27;20901;-70
2022/04/27 02:27:20;;;;;;;229.93;86.67;;;;;;;;;;5138672;27;20706;-70
2022/04/27 02:29:49;;;;;;;210.23;84.07;;;;;;;;;;5138907;27;20549;-71
2022/04/27 02:32:18;;;;;;;235.27;89.67;;;;;;;;;;5137097;27;20476;-70
2022/04/27 02:34:46;;;;;;;237.27;89.37;;;;;;;;;;5138020;27;20549;-71
2022/04/27 02:37:17;;;;;;;232.87;87.77;;;;;;;;;;5138529;27;20522;-70
2022/04/27 02:39:45;;;;;;;244.73;86.90;;;;;;;;;;5138487;27;20468;-70
2022/04/27 02:42:13;;;;;;;205.23;80.03;;;;;;;;;;5138165;27;20446;-71
2022/04/27 02:44:40;;;;;;;236.50;87.07;;;;;;;;;;5138642;27;20473;-70
2022/04/27 02:47:10;;;;;;;246.17;88.00;;;;;;;;;;5138545;27;20752;-72
2022/04/27 02:52:19;;;;;;;235.83;84.70;;;;;;;;;;5091710;27;20430;-70
2022/04/27 02:54:47;;;;;;;229.37;85.27;;;;;;;;;;5137110;27;20468;-71
2022/04/27 02:57:19;;;;;;;255.10;89.73;;;;;;;;;;5137862;27;20467;-71
2022/04/27 02:59:47;;;;;;;233.33;82.57;;;;;;;;;;5137834;27;20745;-71
2022/04/27 03:02:16;;;;;;;240.07;84.77;;;;;;;;;;5138064;27;20922;-71
2022/04/27 03:04:44;;;;;;;249.47;91.93;;;;;;;;;;5137757;27;20462;-70
2022/04/27 03:07:12;;;;;;;249.10;86.30;;;;;;;;;;5138295;27;20457;-71
2022/04/27 03:09:40;;;;;;;232.53;90.80;;;;;;;;;;5137239;27;21023;-70
2022/04/27 03:12:08;;;;;;;237.07;92.17;;;;;;;;;;5135778;27;20450;-71
2022/04/27 03:14:36;;;;;;;198.77;83.63;;;;;;;;;;5137613;27;20465;-70
2022/04/27 03:17:04;;;;;;;238.83;90.30;;;;;;;;;;5137745;27;20450;-70
2022/04/27 03:19:33;;;;;;;247.93;95.43;;;;;;;;;;5137189;27;20442;-71
2022/04/27 03:22:01;;;;;;;221.23;84.17;;;;;;;;;;5137496;27;20457;-71
2022/04/27 03:24:30;;;;;;;227.50;83.33;;;;;;;;;;5137059;27;20545;-71
2022/04/27 03:27:00;;;;;;;226.00;89.73;;;;;;;;;;5137371;27;20485;-71
2022/04/27 03:29:31;;;;;;;234.17;89.00;;;;;;;;;;5137268;27;20523;-71
2022/04/27 03:32:01;;;;;;;247.33;94.10;;;;;;;;;;5136417;27;20464;-70
2022/04/27 03:34:34;;;;;;;214.73;91.23;;;;;;;;;;5117075;27;20486;-70
2022/04/27 03:37:09;;;;;;;229.53;90.03;;;;;;;;;;5116367;27;20466;-71
2022/04/27 03:39:37;;;;;;;125.00;74.80;;;;;;;;;;5117461;27;20542;-72
2022/04/27 03:42:05;;;;;;;137.90;76.87;;;;;;;;;;5117081;27;20446;-71
2022/04/27 03:44:35;;;;;;;123.47;72.33;;;;;;;;;;5117112;27;20527;-71
2022/04/27 03:47:03;;;;;;;130.00;72.97;;;;;;;;;;5116904;27;20482;-71
2022/04/27 03:49:32;;;;;;;141.97;75.10;;;;;;;;;;5117474;27;20469;-71
2022/04/27 03:52:01;;;;;;;139.30;74.00;;;;;;;;;;5116795;27;20463;-71
2022/04/27 03:54:29;;;;;;;138.10;74.03;;;;;;;;;;5116919;27;20577;-71
2022/04/27 03:56:58;;;;;;;153.37;74.17;;;;;;;;;;5127186;27;20454;-71
2022/04/27 03:59:26;;;;;;;121.33;70.27;;;;;;;;;;5137401;27;20826;-71
2022/04/27 04:01:54;;;;;;;120.87;69.40;;;;;;;;;;5137083;27;20465;-71
2022/04/27 04:04:22;;;;;;;112.80;65.60;;;;;;;;;;5136204;27;20465;-71
2022/04/27 04:06:50;;;;;;;126.47;73.97;;;;;;;;;;5137427;27;20571;-71
2022/04/27 04:09:22;;;;;;;126.83;68.77;;;;;;;;;;5138622;27;21102;-72
2022/04/27 04:11:49;;;;;;;135.87;69.57;;;;;;;;;;5139987;27;20473;-71
2022/04/27 04:14:17;;;;;;;142.37;75.47;;;;;;;;;;5139586;27;20500;-71
2022/04/27 04:16:45;;;;;;;260.50;88.57;;;;;;;;;;5141293;27;20481;-71
2022/04/27 04:19:13;;;;;;;263.23;83.97;;;;;;;;;;5140706;27;20476;-71
2022/04/27 04:21:41;;;;;;;249.87;85.37;;;;;;;;;;5140444;27;20858;-71
2022/04/27 04:24:08;;;;;;;269.00;83.40;;;;;;;;;;5140269;27;20461;-71
2022/04/27 04:29:23;;;;;;;278.87;89.97;;;;;;;;;;5140990;27;20433;-71
2022/04/27 04:31:50;;;;;;;234.97;79.33;;;;;;;;;;5140801;27;20446;-70
2022/04/27 04:34:18;;;;;;;227.97;81.00;;;;;;;;;;5140989;27;20492;-70
2022/04/27 04:36:46;;;;;;;250.23;86.50;;;;;;;;;;5140326;27;20450;-71
2022/04/27 04:39:14;;;;;;;210.17;78.73;;;;;;;;;;5140021;27;20462;-70
2022/04/27 04:41:43;;;;;;;225.53;84.60;;;;;;;;;;5140783;27;20457;-70
2022/04/27 04:44:11;;;;;;;260.50;86.50;;;;;;;;;;5140110;27;20518;-70
2022/04/27 04:46:39;;;;;;;251.60;86.17;;;;;;;;;;5140347;27;20488;-71
2022/04/27 04:49:06;;;;;;;259.83;87.30;;;;;;;;;;5139961;27;20469;-70
2022/04/27 04:51:34;;;;;;;258.10;83.77;;;;;;;;;;5140524;27;20465;-71
2022/04/27 04:54:02;;;;;;;259.23;91.00;;;;;;;;;;5140073;27;20478;-70
2022/04/27 04:56:30;;;;;;;244.27;83.07;;;;;;;;;;5138394;27;20880;-71
2022/04/27 04:59:00;;;;;;;244.63;90.30;;;;;;;;;;5139869;27;20500;-69
2022/04/27 05:01:28;;;;;;;251.37;85.27;;;;;;;;;;5139615;27;20458;-70
2022/04/27 05:03:55;;;;;;;249.70;84.77;;;;;;;;;;5140595;27;20881;-71
2022/04/27 05:06:24;;;;;;;244.03;87.37;;;;;;;;;;5139539;27;20964;-71
2022/04/27 05:08:53;;;;;;;235.97;86.83;;;;;;;;;;5129834;27;20485;-71
2022/04/27 05:11:20;;;;;;;277.07;94.37;;;;;;;;;;5138604;27;20442;-70
2022/04/27 05:13:52;;;;;;;249.27;92.70;;;;;;;;;;5117456;27;20469;-71
2022/04/27 05:16:25;;;;;;;254.43;86.83;;;;;;;;;;5126883;27;20508;-71
2022/04/27 05:18:53;;;;;;;267.37;95.57;;;;;;;;;;5117773;27;20950;-71
2022/04/27 05:21:20;;;;;;;254.90;91.07;;;;;;;;;;5136895;27;20924;-71
2022/04/27 05:23:48;;;;;;;254.80;89.27;;;;;;;;;;5131616;27;20466;-70
2022/04/27 05:26:16;;;;;;;261.50;91.67;;;;;;;;;;5129208;27;20546;-70
2022/04/27 05:34:16;;;;;;;255.17;87.87;;;;;;;;;;5117183;27;20449;-70
2022/04/27 05:36:45;;;;;;;270.70;96.50;;;;;;;;;;5129118;27;20468;-72
2022/04/27 05:39:15;;;;;;;247.50;93.33;;;;;;;;;;5133426;27;20454;-71
2022/04/27 05:41:43;;;;;;;265.47;96.40;;;;;;;;;;5131541;27;20461;-71
2022/04/27 05:44:14;;;;;;;260.83;97.87;;;;;;;;;;5132371;27;20538;-70
2022/04/27 05:46:44;;;;;;;259.20;98.00;;;;;;;;;;5137450;27;20478;-70
2022/04/27 05:49:12;;;;;;;247.43;94.80;;;;;;;;;;5136820;27;20915;-70
2022/04/27 05:51:39;;;;;;;127.73;78.70;;;;;;;;;;5135951;27;20450;-70
2022/04/27 05:54:10;;;;;;;128.50;79.73;;;;;;;;;;5141176;27;20458;-70
2022/04/27 05:56:41;;;;;;;140.23;87.73;;;;;;;;;;5122634;27;20461;-70
2022/04/27 05:59:09;;;;;;;243.93;99.30;;;;;;;;;;5118932;27;21047;-71
2022/04/27 06:01:37;;;;;;;198.80;97.77;;;;;;;;;;5117738;27;20454;-71
2022/04/27 06:04:07;;;;;;;226.07;93.37;;;;;;;;;;5132150;27;20919;-71
2022/04/27 06:07:01;;;;;;;213.03;93.90;;;;;;;;;;5139798;27;20491;-72
2022/04/27 06:09:55;;;;;;;200.33;99.20;;;;;;;;;;5118383;27;20515;-70
2022/04/27 06:12:34;;;;;;;233.93;100.93;;;;;;;;;;5126935;27;20532;-71
2022/04/27 06:15:32;;;;;;;260.63;100.83;;;;;;;;;;5122755;27;20527;-70
2022/04/27 06:18:00;;;;;;;225.13;86.93;;;;;;;;;;5115159;27;20454;-71
2022/04/27 06:20:30;;;;;;;240.50;92.70;;;;;;;;;;5114549;27;20446;-70
2022/04/27 06:23:05;;;;;;;252.63;99.27;;;;;;;;;;5134097;27;20945;-71
2022/04/27 06:25:34;;;;;;;230.07;88.80;;;;;;;;;;5129025;27;20458;-70
2022/04/27 06:28:02;;;;;;;212.90;90.10;;;;;;;;;;5135166;27;20473;-69
2022/04/27 06:30:35;;;;;;;230.00;98.20;;;;;;;;;;5135150;27;20483;-70
2022/04/27 06:33:09;;;;;;;196.20;87.27;;;;;;;;;;5134871;27;20470;-69
2022/04/27 06:35:57;;;;;;;235.27;94.97;;;;;;;;;;5134445;27;20465;-70
2022/04/27 06:38:27;;;;;;;153.57;89.20;;;;;;;;;;5132715;27;20441;-69
2022/04/27 06:41:00;;;;;;;249.17;90.87;;;;;;;;;;5135548;27;20446;-72
2022/04/27 06:43:28;;;;;;;245.97;101.83;;;;;;;;;;5121064;27;20438;-71
2022/04/27 06:46:04;;;;;;;141.63;85.17;;;;;;;;;;5128958;27;20462;-70
2022/04/27 06:48:40;;;;;;;256.67;109.83;;;;;;;;;;5137278;27;20869;-69
2022/04/27 06:51:17;;;;;;;173.37;96.33;;;;;;;;;;5113541;27;20530;-72
2022/04/27 06:53:59;;;;;;;213.03;103.53;;;;;;;;;;5112738;27;20447;-69
2022/04/27 06:56:31;;;;;;;243.83;104.13;;;;;;;;;;5125487;27;20538;-70
2022/04/27 06:59:00;;;;;;;72.27;66.27;;;;;;;;;;5134370;27;20960;-69
2022/04/27 07:02:14;;;;;;;136.53;87.27;;;;;;;;;;5133266;27;20576;-70
2022/04/27 07:04:43;;;;;;;142.00;97.40;;;;;;;;;;5087693;28;20459;-69
2022/04/27 07:07:11;;;;;;;229.43;97.53;;;;;;;;;;5130704;27;20513;-70
2022/04/27 07:09:41;;;;;;;216.00;100.40;;;;;;;;;;5135287;27;20457;-70
2022/04/27 07:12:09;;;;;;;127.90;95.60;;;;;;;;;;5135978;27;20450;-70
2022/04/27 07:14:37;;;;;;;209.00;113.43;;;;;;;;;;5135990;27;20541;-70
2022/04/27 07:17:05;;;;;;;129.67;101.47;;;;;;;;;;5135704;27;20502;-70
2022/04/27 07:19:33;;;;;;;239.63;112.20;;;;;;;;;;5134784;27;21014;-70
2022/04/27 07:22:02;;;;;;;238.90;110.27;;;;;;;;;;5134807;27;20446;-70
2022/04/27 07:24:38;;;;;;;175.20;113.07;;;;;;;;;;5134813;27;20450;-71
2022/04/27 07:27:07;;;;;;;255.77;114.33;;;;;;;;;;5134230;27;20767;-69
2022/04/27 07:29:37;;;;;;;166.13;107.83;;;;;;;;;;5135154;27;20826;-69
2022/04/27 07:32:10;;;;;;;247.67;119.10;;;;;;;;;;5128209;27;20451;-70
2022/04/27 07:34:41;;;;;;;214.03;109.77;;;;;;;;;;5121615;27;20456;-71
2022/04/27 07:37:14;;;;;;;150.60;111.03;;;;;;;;;;5134899;27;20670;-71
2022/04/27 07:39:45;;;;;;;220.93;119.37;;;;;;;;;;5134921;27;20457;-70
2022/04/27 07:42:18;;;;;;;272.03;125.70;;;;;;;;;;5134433;27;21126;-71
2022/04/27 07:44:49;;;;;;;257.30;115.30;;;;;;;;;;5134500;27;20465;-71
2022/04/27 07:47:23;;;;;;;252.77;124.90;;;;;;;;;;5129571;27;20496;-70
2022/04/27 07:49:50;;;;;;;257.37;121.57;;;;;;;;;;5121908;27;20460;-70
2022/04/27 07:52:39;;;;;;;246.97;128.03;;;;;;;;;;5135393;27;20546;-69
2022/04/27 07:55:08;;;;;;;242.20;119.20;;;;;;;;;;5135559;27;20779;-71
2022/04/27 07:57:38;;;;;;;174.63;107.17;;;;;;;;;;5134920;27;20906;-70
2022/04/27 08:00:08;;;;;;;215.73;111.57;;;;;;;;;;5135291;27;20454;-71
2022/04/27 08:02:37;;;;;;;271.60;126.50;;;;;;;;;;5133992;27;20890;-69
2022/04/27 08:05:05;;;;;;;272.23;119.87;;;;;;;;;;5131469;27;21048;-70
2022/04/27 08:07:45;;;;;;;223.67;116.87;;;;;;;;;;5133640;27;20588;-70
2022/04/27 08:10:14;;;;;;;251.97;111.87;;;;;;;;;;5118058;27;20511;-69
2022/04/27 08:12:52;;;;;;;263.90;127.77;;;;;;;;;;5130008;27;20581;-70
2022/04/27 08:15:24;;;;;;;252.63;124.20;;;;;;;;;;5134349;27;20858;-71
2022/04/27 08:17:55;;;;;;;286.43;133.80;;;;;;;;;;5134990;27;20704;-73
2022/04/27 08:23:10;;;;;;;241.30;125.87;;;;;;;;;;5089568;28;20776;-71
2022/04/27 08:25:44;;;;;;;274.87;149.73;;;;;;;;;;5134900;27;20772;-71
2022/04/27 08:28:17;;;;;;;255.70;125.67;;;;;;;;;;5126883;27;20473;-70
2022/04/27 08:30:50;;;;;;;227.57;129.20;;;;;;;;;;5132880;27;20530;-70
2022/04/27 08:33:20;;;;;;;261.10;138.47;;;;;;;;;;5113358;27;20455;-70
2022/04/27 08:35:51;;;;;;;272.27;122.40;;;;;;;;;;5131294;27;20484;-70
2022/04/27 08:38:18;;;;;;;264.27;140.73;;;;;;;;;;5134037;27;20755;-70
2022/04/27 08:40:50;;;;;;;251.17;126.53;;;;;;;;;;5129163;27;21055;-70
2022/04/27 08:43:20;;;;;;;242.43;127.90;;;;;;;;;;5128868;27;20501;-69
2022/04/27 08:45:51;;;;;;;203.73;138.97;;;;;;;;;;5135339;27;20541;-70
2022/04/27 08:48:21;;;;;;;202.43;121.43;;;;;;;;;;5134232;27;20480;-70
2022/04/27 08:50:49;;;;;;;240.83;125.03;;;;;;;;;;5131736;27;20544;-70
2022/04/27 08:53:18;;;;;;;268.37;144.13;;;;;;;;;;5132670;27;20485;-70
2022/04/27 08:55:51;;;;;;;216.07;127.13;;;;;;;;;;5135352;27;20457;-71
2022/04/27 08:58:22;;;;;;;264.83;143.07;;;;;;;;;;5138608;27;20485;-71
2022/04/27 09:00:50;;;;;;;263.57;132.07;;;;;;;;;;5138049;27;20548;-70
2022/04/27 09:03:29;;;;;;;256.30;131.57;;;;;;;;;;5138139;27;20468;-70
2022/04/27 09:06:01;;;;;;;252.97;127.60;;;;;;;;;;5138379;27;20468;-70
2022/04/27 09:08:37;;;;;;;8.77;6.87;;;;;;;;;;5137616;27;20496;-70
2022/04/27 09:11:25;;;;;;;117.13;106.17;;;;;;;;;;5137486;27;20481;-71
2022/04/27 09:13:55;;;;;;;42.13;39.23;;;;;;;;;;5128534;27;20461;-71
2022/04/27 09:16:24;;;;;;;43.40;40.43;;;;;;;;;;5137520;27;21058;-72
2022/04/27 09:21:58;;;;;;;111.47;102.20;;;;;;;;;;5135523;27;20622;-73
2022/04/27 09:24:28;;;;;;;22.80;17.63;;;;;;;;;;5132617;27;20909;-72
2022/04/27 09:27:03;;;;;;;37.73;35.20;;;;;;;;;;5130262;27;20996;-71
2022/04/27 09:29:36;;;;;;;56.30;52.80;;;;;;;;;;5116172;27;20458;-71
2022/04/27 09:32:06;;;;;;;21.00;19.30;;;;;;;;;;5125925;27;20463;-72
2022/04/27 09:34:54;;;;;;;11.83;8.43;;;;;;;;;;5135937;27;20469;-71
2022/04/27 09:37:25;;;;;;;37.03;34.60;;;;;;;;;;5131919;27;20556;-71
2022/04/27 09:40:03;;;;;;;162.57;143.03;;;;;;;;;;5131711;27;20760;-73
2022/04/27 09:42:37;;;;;;;253.13;153.20;;;;;;;;;;5135231;27;20506;-71
2022/04/27 09:45:31;;;;;;;253.20;146.17;;;;;;;;;;5135881;27;20467;-71
2022/04/27 09:48:03;;;;;;;253.83;141.23;;;;;;;;;;5125466;27;20493;-72
2022/04/27 09:50:47;;;;;;;264.77;149.33;;;;;;;;;;5134625;27;20465;-71
2022/04/27 09:53:16;;;;;;;273.90;150.17;;;;;;;;;;5117838;27;20469;-71
2022/04/27 09:55:46;;;;;;;282.57;149.57;;;;;;;;;;5129232;27;20438;-70
2022/04/27 09:58:14;;;;;;;283.47;160.80;;;;;;;;;;5152758;27;20468;-70
2022/04/27 10:00:49;;;;;;;285.40;162.03;;;;;;;;;;5143826;27;20961;-71
2022/04/27 10:03:22;;;;;;;295.70;166.33;;;;;;;;;;5131733;27;20472;-72
2022/04/27 10:05:54;;;;;;;284.37;161.60;;;;;;;;;;5132407;27;20450;-74
2022/04/27 10:08:27;;;;;;;249.40;162.07;;;;;;;;;;5128024;27;20482;-74
2022/04/27 10:10:55;;;;;;;241.30;156.73;;;;;;;;;;5130717;27;20773;-73
2022/04/27 10:13:24;;;;;;;239.57;161.73;;;;;;;;;;5117252;27;20904;-73
2022/04/27 10:15:57;;;;;;;216.27;156.07;;;;;;;;;;5116895;27;20473;-74
2022/04/27 10:18:25;;;;;;;231.73;143.63;;;;;;;;;;5119571;27;21208;-73
2022/04/27 10:20:53;;;;;;;143.33;130.70;;;;;;;;;;5132128;27;20509;-73
2022/04/27 10:23:37;;;;;;;175.50;157.40;;;;;;;;;;5123543;27;20466;-72
2022/04/27 10:26:12;;;;;;;82.50;77.23;;;;;;;;;;5129941;27;20615;-72
2022/04/27 10:28:44;;;;;;;117.67;109.37;;;;;;;;;;5127844;27;20485;-72
2022/04/27 10:31:42;;;;;;;116.87;109.37;;;;;;;;;;5128707;27;20509;-71
2022/04/27 10:34:29;;;;;;;160.40;145.43;;;;;;;;;;5115037;27;20863;-72
2022/04/27 10:37:01;;;;;;;179.30;162.73;;;;;;;;;;5124504;27;20493;-71
2022/04/27 10:39:29;;;;;;;185.97;169.37;;;;;;;;;;5133966;27;20449;-73
2022/04/27 10:42:12;;;;;;;218.23;195.13;;;;;;;;;;5134699;27;20495;-72
2022/04/27 10:45:02;;;;;;;223.47;196.37;;;;;;;;;;5127078;27;20451;-72
2022/04/27 10:47:45;;;;;;;234.17;211.23;;;;;;;;;;5127342;27;20542;-71
2022/04/27 10:50:33;;;;;;;213.53;190.73;;;;;;;;;;5132377;27;20465;-72
2022/04/27 10:53:19;;;;;;;214.10;191.23;;;;;;;;;;5134608;27;20568;-71
2022/04/27 10:56:01;;;;;;;205.27;167.53;;;;;;;;;;5129188;27;20478;-75
2022/04/27 10:58:42;;;;;;;256.53;178.40;;;;;;;;;;5120907;27;20575;-73
2022/04/27 11:01:28;;;;;;;273.10;187.33;;;;;;;;;;5134774;27;20460;-71
2022/04/27 11:04:14;;;;;;;272.37;176.00;;;;;;;;;;5134526;27;20442;-72
2022/04/27 11:07:12;;;;;;;261.40;172.07;;;;;;;;;;5131747;27;20462;-73
2022/04/27 11:09:53;;;;;;;271.87;167.07;;;;;;;;;;5132313;27;20454;-73
2022/04/27 11:12:28;;;;;;;295.77;203.00;;;;;;;;;;5127917;27;20876;-73
2022/04/27 11:15:09;;;;;;;215.23;167.57;;;;;;;;;;5130691;27;20650;-76
2022/04/27 11:17:37;;;;;;;276.37;190.00;;;;;;;;;;5132473;27;20904;-73
2022/04/27 11:20:10;;;;;;;301.93;192.33;;;;;;;;;;5132218;27;20493;-74
2022/04/27 11:25:33;;;;;;;294.43;207.07;;;;;;;;;;5126351;27;20476;-74
2022/04/27 11:28:17;;;;;;;69.50;65.37;;;;;;;;;;5132493;27;20489;-74
2022/04/27 11:30:51;;;;;;;120.27;113.07;;;;;;;;;;5120668;27;20516;-75
2022/04/27 11:33:21;;;;;;;190.97;176.80;;;;;;;;;;5131867;27;20529;-74
2022/04/27 11:36:10;;;;;;;;;;;;;;;;;;;;;
2022/04/27 11:38:41;;;;;;;33.53;31.57;;;;;;;;;;5132866;27;20481;-73
2022/04/27 11:42:30;;;;;;;;;;;;;;;;;;;;;
2022/04/27 11:45:12;;;;;;;152.00;142.00;;;;;;;;;;5066009;28;20624;-73
2022/04/27 11:47:42;;;;;;;282.33;202.93;;;;;;;;;;5047779;28;20473;-71
2022/04/27 11:50:11;;;;;;;312.77;173.37;;;;;;;;;;5047863;28;20461;-72
2022/04/27 11:52:39;;;;;;;336.77;206.60;;;;;;;;;;5049626;28;20446;-73
2022/04/27 11:55:11;;;;;;;335.70;219.13;;;;;;;;;;5049125;28;20461;-73
2022/04/27 11:57:39;;;;;;;336.40;206.10;;;;;;;;;;5049522;28;20548;-72
2022/04/27 12:00:10;;;;;;;344.80;202.97;;;;;;;;;;5049272;28;20554;-74
2022/04/27 12:02:44;;;;;;;342.87;201.63;;;;;;;;;;5049705;28;20461;-74
2022/04/27 12:05:11;;;;;;;323.37;195.97;;;;;;;;;;5041879;28;20462;-71
2022/04/27 12:07:41;;;;;;;298.00;190.80;;;;;;;;;;5032704;28;20462;-73
2022/04/27 12:10:10;;;;;;;315.47;189.47;;;;;;;;;;5047888;28;20458;-73
2022/04/27 12:12:39;;;;;;;321.07;196.40;;;;;;;;;;5049199;28;20444;-73
2022/04/27 12:15:25;;;;;;;301.27;186.53;;;;;;;;;;5047056;28;20919;-71
2022/04/27 12:18:05;;;;;;;289.33;196.33;;;;;;;;;;5048707;28;20531;-73
2022/04/27 12:20:39;;;;;;;212.47;177.23;;;;;;;;;;5049501;28;20477;-74
2022/04/27 12:23:10;;;;;;;245.70;200.90;;;;;;;;;;5048012;28;20449;-71
2022/04/27 12:25:39;;;;;;;287.00;203.33;;;;;;;;;;5049151;28;20546;-74
2022/04/27 12:28:09;;;;;;;273.13;188.87;;;;;;;;;;5048961;28;20473;-72
2022/04/27 12:31:02;;;;;;;284.13;211.43;;;;;;;;;;5049554;28;20710;-73
2022/04/27 12:33:37;;;;;;;289.87;217.77;;;;;;;;;;5048766;28;20461;-74
2022/04/27 12:38:59;;;;;;;310.07;192.60;;;;;;;;;;5048996;28;20502;-72
2022/04/27 12:42:08;;;;;;;247.20;175.47;;;;;;;;;;5049752;28;20831;-73
2022/04/27 12:44:42;;;;;;;304.77;194.57;;;;;;;;;;5053422;28;20458;-74
2022/04/27 12:47:16;;;;;;;301.00;202.47;;;;;;;;;;5054935;28;20493;-74
2022/04/27 12:50:02;;;;;;;314.03;204.33;;;;;;;;;;5045835;28;20461;-73
2022/04/27 12:52:33;;;;;;;315.77;184.97;;;;;;;;;;5035208;28;20482;-73
2022/04/27 12:55:03;;;;;;;270.63;189.07;;;;;;;;;;5033592;28;20451;-72
2022/04/27 12:57:48;;;;;;;307.87;198.73;;;;;;;;;;5035085;28;20980;-73
2022/04/27 13:00:26;;;;;;;307.00;169.13;;;;;;;;;;5028677;28;20486;-72
2022/04/27 13:02:59;;;;;;;201.17;183.60;;;;;;;;;;5015262;28;20478;-72
2022/04/27 13:08:21;;;;;;;234.40;210.23;;;;;;;;;;5026019;28;20465;-73
2022/04/27 13:13:54;;;;;;;284.03;178.83;;;;;;;;;;5038482;28;20437;-73
2022/04/27 13:16:25;;;;;;;292.17;200.50;;;;;;;;;;5039331;28;20577;-73
2022/04/27 13:18:55;;;;;;;269.53;219.53;;;;;;;;;;5034868;28;20549;-72
2022/04/27 13:21:23;;;;;;;37.70;34.17;;;;;;;;;;5036752;28;20500;-72
2022/04/27 13:23:51;;;;;;;52.10;49.53;;;;;;;;;;5052862;28;20552;-72
2022/04/27 13:26:27;;;;;;;25.73;23.97;;;;;;;;;;5031578;28;20540;-72
2022/04/27 13:29:00;;;;;;;10.80;7.50;;;;;;;;;;5030455;28;20446;-72
2022/04/27 13:31:31;;;;;;;30.20;27.90;;;;;;;;;;5031750;28;20461;-73
2022/04/27 13:36:48;;;;;;;33.37;30.70;;;;;;;;;;5015900;28;20473;-71
2022/04/27 13:39:18;;;;;;;77.30;72.80;;;;;;;;;;5032076;28;20556;-72
2022/04/27 13:41:46;;;;;;;203.53;188.07;;;;;;;;;;5013515;28;20487;-71
2022/04/27 13:44:22;;;;;;;65.83;62.43;;;;;;;;;;5023650;28;20470;-71
2022/04/27 13:46:57;;;;;;;65.93;62.57;;;;;;;;;;5032104;28;20762;-73
2022/04/27 13:49:30;;;;;;;14.80;13.33;;;;;;;;;;5031462;28;20886;-72
2022/04/27 13:51:58;;;;;;;10.10;9.10;;;;;;;;;;5033156;28;20469;-72
2022/04/27 13:54:35;;;;;;;9.93;8.43;;;;;;;;;;5033018;28;20454;-72
2022/04/27 13:57:03;;;;;;;236.33;191.33;;;;;;;;;;5032682;28;20485;-72
2022/04/27 13:59:31;;;;;;;9.53;8.53;;;;;;;;;;5032869;28;20458;-72
2022/04/27 14:02:01;;;;;;;36.90;33.90;;;;;;;;;;5033635;28;20494;-71
2022/04/27 14:04:44;;;;;;;18.83;17.70;;;;;;;;;;5033896;28;20460;-72
2022/04/27 14:10:15;;;;;;;71.57;67.37;;;;;;;;;;5003513;28;20477;-72
2022/04/27 14:15:30;;;;;;;175.60;156.90;;;;;;;;;;5033107;28;20429;-71
2022/04/27 14:18:18;;;;;;;56.07;53.10;;;;;;;;;;5033375;28;20525;-72
2022/04/27 14:20:47;;;;;;;122.30;115.47;;;;;;;;;;5031961;28;20482;-73
2022/04/27 14:23:19;;;;;;;10.80;8.37;;;;;;;;;;5047023;28;20454;-71
2022/04/27 14:25:47;;;;;;;15.37;8.97;;;;;;;;;;5042606;28;21125;-70
2022/04/27 14:28:15;;;;;;;12.73;11.73;;;;;;;;;;5053028;28;20445;-72
2022/04/27 14:30:43;;;;;;;10.60;9.73;;;;;;;;;;5053382;28;20485;-71
2022/04/27 14:33:11;;;;;;;9.73;8.87;;;;;;;;;;5043939;28;20452;-72
2022/04/27 14:35:40;;;;;;;14.20;8.07;;;;;;;;;;5035976;28;20483;-73
2022/04/27 14:38:14;;;;;;;22.40;20.90;;;;;;;;;;5033648;28;20469;-72
2022/04/27 14:40:47;;;;;;;12.57;11.37;;;;;;;;;;5032212;28;20802;-72
2022/04/27 14:43:18;;;;;;;19.40;18.20;;;;;;;;;;5034475;28;20467;-72
2022/04/27 14:45:47;;;;;;;31.70;29.60;;;;;;;;;;5032620;28;20469;-73
2022/04/27 14:48:15;;;;;;;6.87;5.27;;;;;;;;;;5033317;28;20466;-73
2022/04/27 14:50:49;;;;;;;20.97;19.30;;;;;;;;;;5033175;28;20551;-72
2022/04/27 14:53:23;;;;;;;14.53;13.23;;;;;;;;;;5033262;28;20466;-73
2022/04/27 14:55:55;;;;;;;13.67;12.30;;;;;;;;;;5033181;28;20859;-72
2022/04/27 14:58:43;;;;;;;10.77;8.30;;;;;;;;;;5031832;28;20466;-71
2022/04/27 15:08:07;;;;;;;16.40;14.77;;;;;;;;;;4895692;29;20476;-71
2022/04/27 15:10:41;;;;;;;12.37;11.37;;;;;;;;;;4969008;28;20452;-72
2022/04/27 15:13:13;;;;;;;16.33;15.23;;;;;;;;;;5034460;28;20829;-71
2022/04/27 15:15:50;;;;;;;12.63;11.33;;;;;;;;;;5032892;28;21013;-73
2022/04/27 15:18:30;;;;;;;40.60;37.80;;;;;;;;;;5033134;28;20790;-72
2022/04/27 15:23:57;;;;;;;9.87;8.87;;;;;;;;;;5031584;28;20433;-73